1976 Severe Tropical Cyclone BETH (1976045S17150)


IBTrACS version v04r00. Visit IBTrACS website for data access.
Please direct all questions to the IBTrACS Q and A forum

Storm track - Intensity - Wind Radii - Intensity Data - Source Data - All data

Summary Information

Storm ID 1976045S17150
Start Feb 13 17Z
Landfall Feb 22 00Z
Max Intensity 70 kt (Feb 17 23Z), 965 mb (Feb 18 11Z)
End Feb 22 12Z
ATCF IDs ,SH151976
Track status Best track data.

Storm track plot

Map of storm track

Intensity plots

Map of storm track

Radial wind information

No radial wind information for this storm


Position and Intensity Table

BASIN ISO_TIME_________ NATURE LAT LON WMO WIND WMO PRES BOM WIND BOM PRES WELLINGTON WIND WELLINGTON PRES DS824 WIND DS824 PRES NEUMANN WIND NEUMANN PRES
degrees north degrees east kts mb kts mb kts mb kts mb kts mb
SP 1976-02-13 17:00:00 NR -16.50 149.90 25 1003 25 1003
SP 18:00:00 TS -16.43 150.02 25 1002 25 1003 25 1003
SP 21:00:00 TS -16.17 150.25 25 1002 25 1002 25 1002
SP 23:00:00 TS -16.03 150.32 25 1002 25 1002 25 1002 25 1002
SP 1976-02-14 00:00:00 TS -15.98 150.33 25 1001 25 1002 25 1002
SP 03:00:00 TS -15.90 150.21 25 1000 27 1000 27 1000
SP 05:00:00 TS -15.89 150.08 25 999 25 999 29 999 29 999
SP 06:00:00 TS -15.91 150.01 25 999 30 999 30 999
SP 09:00:00 TS -16.01 149.79 25 1000 30 1000 27 1000
SP 11:00:00 TS -16.08 149.71 25 1001 25 1001 30 1000 25 1000
SP 12:00:00 TS -16.11 149.71 25 1000 30 1001 25 1001
SP 15:00:00 TS -16.12 149.88 25 1000 30 1000 27 1000
SP 17:00:00 TS -16.09 150.03 25 1000 25 1000 30 1000 29 1000
SP 18:00:00 TS -16.06 150.08 25 999 30 1000 30 1000
SP 21:00:00 TS -15.92 150.17 25 999 30 999 30 999
SP 23:00:00 TS -15.80 150.17 25 999 25 999 30 999 30 999
SP 1976-02-15 00:00:00 TS -15.75 150.16 25 998 30 999 30 999
SP 03:00:00 TS -15.60 150.07 28 997 32 998 32 998
SP 05:00:00 TS -15.50 149.97 30 997 30 997 34 997 34 997
SP 06:00:00 TS -15.45 149.91 30 996 35 997 35 997
SP 09:00:00 TS -15.31 149.72 33 996 35 996 35 996
SP 11:00:00 TS -15.23 149.58 35 996 35 996 35 996 35 996
SP 12:00:00 TS -15.17 149.47 35 995 40 990 35 996 35 996
SP 15:00:00 TS -15.08 149.21 35 994 40 990 37 995 37 995
SP 17:00:00 TS -15.01 149.00 35 994 35 994 40 990 39 994 39 994
SP 18:00:00 TS -14.98 148.87 35 994 40 990 40 994 40 994
SP 21:00:00 TS -14.84 148.59 35 994 40 990 40 994 40 994
SP 23:00:00 TS -14.72 148.45 35 994 35 994 40 990 40 994 40 994
SP 1976-02-16 00:00:00 TS -14.65 148.41 35 993 40 990 40 994 40 994
SP 03:00:00 TS -14.39 148.39 38 992 43 987 42 993 42 993
SP 05:00:00 TS -14.22 148.47 40 992 40 992 46 985 44 992 44 992
SP 06:00:00 TS -14.14 148.53 40 991 47 985 45 992 45 992
SP 09:00:00 TS -13.98 148.80 40 990 51 982 45 991 45 991
SP 11:00:00 TS -13.93 149.02 40 990 40 990 53 980 45 990 45 990
SP 12:00:00 TS -13.91 149.21 40 989 55 980 45 990 45 990
SP 15:00:00 TS -14.04 149.48 43 988 55 980 47 989 47 989
SP 17:00:00 TS -14.18 149.67 45 988 45 988 55 980 49 988 49 989
SP 18:00:00 TS -14.26 149.79 45 987 55 980 50 988 50 989
SP 21:00:00 TS -14.41 150.09 48 986 55 980 50 987 50 989
SP 23:00:00 TS -14.51 150.37 50 986 50 986 55 980 50 986 50 989
SP 1976-02-17 00:00:00 TS -14.58 150.56 50 985 55 980 50 986 50 989
SP 02:00:00 TS -14.69 151.00 50 984 50 984 55 980 51 984 51 987
SP 03:00:00 TS -14.75 151.27 51 983 55 980 52 984 52 987
SP 05:00:00 TS -14.83 151.82 55 982 55 982 55 980 54 982 54 986
SP 06:00:00 TS -14.87 152.09 55 981 55 980 55 982 55 986
SP 09:00:00 TS -14.97 152.93 58 979 55 980 57 980 55 985
SP 11:00:00 TS -15.06 153.51 60 978 60 978 55 980 59 978 55 985
SP 12:00:00 TS -15.11 153.80 60 977 55 980 60 978 55 985
SP 15:00:00 TS -15.31 154.71 63 975 57 977 62 976 60 981
SP 17:00:00 TS -15.48 155.31 65 974 65 974 59 975 64 974 63 979
SP 18:00:00 TS -15.56 155.61 65 973 60 975 65 974 65 978
SP 21:00:00 TS -15.85 156.46 68 972 62 972 67 973 67 976
SP 23:00:00 TS -16.05 156.99 70 972 70 972 64 970 69 972 69 975
SP 1976-02-18 00:00:00 TS -16.16 157.25 70 972 65 970 70 972 70 975
SP 03:00:00 TS -16.45 157.96 70 972 66 968 70 972 70 974
SP 05:00:00 TS -16.66 158.36 70 972 70 972 67 967 70 972 70 973
SP 06:00:00 TS -16.77 158.54 70 972 67 967 70 972 70 973
SP 09:00:00 TS -17.12 159.00 70 972 68 966 70 972 70 974
SP 11:00:00 TS -17.38 159.21 70 972 70 972 69 965 70 972 70 974
SP 12:00:00 TS -17.51 159.30 69 972 70 965 70 972 70 975
SP 15:00:00 TS -17.92 159.47 66 974 70 965 67 974 67 976
SP 17:00:00 TS -18.20 159.52 65 976 65 976 70 965 65 975 65 976
SP 18:00:00 TS -18.33 159.55 63 976 70 965 65 976 65 977
SP 21:00:00 TS -18.72 159.60 58 977 70 965 62 977 65 978
SP 23:00:00 TS -18.97 159.61 55 979 55 979 70 965 60 978 65 978
SP 1976-02-19 00:00:00 TS -19.10 159.61 55 979 70 965 60 979 65 979
SP 03:00:00 TS -19.49 159.61 55 980 68 966 60 980 62 979
SP 05:00:00 TS -19.75 159.59 55 981 55 981 67 967 60 980 60 979
SP 06:00:00 TS -19.89 159.58 55 981 67 967 60 981 60 980
SP 09:00:00 TS -20.31 159.52 55 982 66 968 57 982 60 980
SP 11:00:00 TS -20.61 159.43 55 983 55 983 65 969 55 982 60 980
SP 12:00:00 TS -20.76 159.35 55 983 65 970 55 983 60 980
SP 14:00:00 TS -21.11 159.17 55 984 55 984 63 971 55 983 60 980
SP 15:00:00 TS -21.29 159.08 55 984 62 972 55 984 60 981
SP 17:00:00 TS -21.68 158.87 55 985 55 985 60 974 55 984 60 981
SP 18:00:00 TS -21.87 158.75 55 985 60 975 55 985 60 982
SP 21:00:00 TS -22.46 158.30 55 986 57 977 52 986 57 983
SP 23:00:00 TS -22.80 157.96 55 987 55 987 55 979 50 986 55 984
SP 1976-02-20 00:00:00 TS -22.93 157.81 54 987 55 980 50 987 55 985
SP 03:00:00 TS -23.19 157.36 51 988 51 982 50 988 55 985
SP 05:00:00 TS -23.30 157.07 50 989 50 989 48 984 50 988 55 985
SP 06:00:00 TS -23.35 156.92 50 989 47 985 50 989 55 985
SP 09:00:00 TS -23.52 156.45 50 990 43 987 47 990 52 987
SP 11:00:00 TS -23.62 156.14 50 991 50 991 41 989 45 990 50 988
SP 12:00:00 TS -23.66 155.98 50 991 40 990 45 991 50 989
SP 15:00:00 TS -23.78 155.49 50 991 43 987 45 991 47 990
SP 17:00:00 TS -23.84 155.17 50 992 50 992 46 985 45 991 45 991
SP 18:00:00 TS -23.87 155.02 50 992 47 985 45 992 45 992
SP 21:00:00 TS -23.93 154.57 50 992 51 982 45 992 45 992
SP 23:00:00 TS -23.96 154.31 50 992 50 992 53 980 45 992 45 992
SP 1976-02-21 00:00:00 TS -23.97 154.19 50 992 55 980 45 992 45 992
SP 03:00:00 TS -24.00 153.90 50 992 51 982 42 992 42 992
SP 05:00:00 TS -24.02 153.74 50 993 50 993 48 984 40 992 40 992
SP 06:00:00 TS -24.03 153.67 50 993 47 985 40 993 40 993
SP 09:00:00 TS -24.06 153.44 50 993 43 987 40 993 40 993
SP 11:00:00 TS -24.09 153.30 50 994 50 994 41 989 40 993 40 993
SP 12:00:00 TS -24.10 153.22 50 994 40 990 40 994 40 994
SP 15:00:00 TS -24.18 152.98 50 994 40 990 40 994 40 994
SP 17:00:00 TS -24.24 152.80 50 994 50 994 40 990 40 994 40 994
SP 18:00:00 TS -24.28 152.70 50 994 40 990 40 994 40 994
SP 20:00:00 TS -24.36 152.48 50 994 50 994 40 990 38 994 38 994
SP 21:00:00 TS -24.40 152.36 48 994 40 990 37 995 37 995
SP 23:00:00 TS -24.46 152.11 45 996 45 996 40 990 35 995 35 995
SP 1976-02-22 00:00:00 TS -24.45 151.97 41 997 40 990 35 996 35 996
SP 03:00:00 TS -24.35 151.53 31 1001 30 1000
SP 05:00:00 TS -24.20 151.21 25 1004 25 1004 26 1002
SP 06:00:00 TS -24.06 151.03 25 1004
SP 09:00:00 TS -23.76 150.50
SP 12:00:00 TS -23.50 150.00

Source Information

Agency Information
USA bsh151976.txt
TOKYO
CMA
HKO
NEWDELHI
REUNION
BOM IDCKMSTM0S.csv:Line=10209:BETH
NADI
WELLINGTON TC_BT_1967_2006.csv:Line=839:BETH
DS824 aus_area.dat:548:BETH
TD9636 cons_worldwide_trop_cyclone_18710101-19891231-006:Line=10126
TD9635
NEUMANN tracks.sh:Storm=461:BETH:BSH1576:BM466
MLC

All available IBTrACS Data

SEASON BASIN SUBBASIN ISO_TIME_________ NATURE LAT LON WMO WIND WMO PRES WMO AGENCY DIST2LAND LANDFALL IFLAG USA AGENCY USA ATCF_ID USA LAT USA LON USA SSHS BOM LAT BOM LON BOM TYPE BOM WIND BOM PRES BOM CI BOM PRES_METHOD WELLINGTON LAT WELLINGTON LON WELLINGTON WIND WELLINGTON PRES DS824 LAT DS824 LON DS824 STAGE DS824 WIND DS824 PRES TD9636 LAT TD9636 LON TD9636 STAGE NEUMANN LAT NEUMANN LON NEUMANN CLASS NEUMANN WIND NEUMANN PRES BOM GUST BOM GUST_PER STORM SPEED STORM DIR
Year degrees north degrees east kts mb km km degrees north degrees east 1 degrees north degrees east kts mb 1 degrees north degrees east kts mb degrees north degrees east kts mb degrees north degrees east degrees north degrees east kts mb kts second kts degrees
1976 SP EA 1976-02-13 17:00:00 NR -16.50 149.90 25 1003 bom 416 416 ______O_______ -1 -16.50 149.90 20 25 1003 1.50 45 45 8 57
1976 SP EA 18:00:00 TS -16.43 150.02 429 429 ______P__O__O_ -1 -16.40 150.00 20 25 1002 -16.40 150.00 TC 25 1003 -16.50 150.10 TC 25 1003 7 45
1976 SP EA 21:00:00 TS -16.17 150.25 456 456 ______P__P__P_ -1 -16.13 150.23 20 25 1002 -16.18 150.15 TC 25 1002 -16.22 150.37 TC 25 1002 6 36
1976 SP EA 23:00:00 TS -16.03 150.32 25 1002 bom 474 474 ______O__P__P_ -1 -16.00 150.30 20 25 1002 1.50 -16.05 150.20 TC 25 1002 -16.06 150.48 TC 25 1002 45 45 4 22
1976 SP EA 1976-02-14 00:00:00 TS -15.98 150.33 474 468 ______P__O__O_ -1 -15.95 150.29 20 25 1001 -16.00 150.20 TC 25 1002 -16.00 150.50 TC 25 1002 3 323
1976 SP EA 03:00:00 TS -15.90 150.21 468 458 ______P__P__P_ -1 -15.89 150.15 20 25 1000 -15.91 150.08 TC 27 1000 -15.90 150.41 TC 27 1000 3 290
1976 SP EA 05:00:00 TS -15.89 150.08 25 999 bom 458 448 ______O__P__P_ -1 -15.90 150.00 20 25 999 2.00 -15.89 149.96 TC 29 999 -15.89 150.27 TC 29 999 45 45 4 267
1976 SP EA 06:00:00 TS -15.91 150.01 448 424 ______P__O__O_ -1 -15.92 149.92 20 25 999 -15.90 149.90 TC 30 999 -15.90 150.20 TC 30 999 4 247
1976 SP EA 09:00:00 TS -16.01 149.79 424 410 ______P__P__P_ -1 -16.03 149.68 20 25 1000 -16.00 149.76 TC 30 1000 -15.99 149.95 TC 27 1000 4 239
1976 SP EA 11:00:00 TS -16.08 149.71 25 1001 bom 410 410 ______O__P__P_ -1 -16.10 149.60 20 25 1001 2.00 -16.08 149.70 TC 30 1000 -16.07 149.82 TC 25 1000 45 45 3 218
1976 SP EA 12:00:00 TS -16.11 149.71 410 410 ______P__O__O_ -1 -16.12 149.63 20 25 1000 -16.10 149.70 TC 30 1001 -16.10 149.80 TC 25 1001 3 103
1976 SP EA 15:00:00 TS -16.12 149.88 430 430 ______P__P__P_ -1 -16.13 149.85 20 25 1000 -16.09 149.83 TC 30 1000 -16.14 149.96 TC 27 1000 4 86
1976 SP EA 17:00:00 TS -16.09 150.03 25 1000 bom 440 440 ______O__P__P_ -1 -16.10 150.00 20 25 1000 2.00 -16.04 149.95 TC 30 1000 -16.12 150.13 TC 29 1000 45 45 4 72
1976 SP EA 18:00:00 TS -16.06 150.08 450 450 ______P__O__O_ -1 -16.07 150.04 20 25 999 -16.00 150.00 TC 30 1000 -16.10 150.20 TC 30 1000 3 39
1976 SP EA 21:00:00 TS -15.92 150.17 468 468 ______P__P__P_ -1 -15.92 150.11 20 25 999 -15.86 150.10 TC 30 999 -15.97 150.30 TC 30 999 3 19
1976 SP EA 23:00:00 TS -15.80 150.17 25 999 bom 472 472 ______O__P__P_ -1 -15.80 150.10 20 25 999 2.00 -15.76 150.11 TC 30 999 -15.86 150.31 TC 30 999 45 45 3 0
1976 SP EA 1976-02-15 00:00:00 TS -15.75 150.16 476 466 ______P__O__O_ -1 -15.75 150.09 20 25 998 -15.70 150.10 TC 30 999 -15.80 150.30 TC 30 999 3 336
1976 SP EA 03:00:00 TS -15.60 150.07 471 462 ______P__P__P_ -1 -15.60 150.00 20 28 997 -15.54 149.99 TC 32 998 -15.65 150.24 TC 32 998 4 324
1976 SP EA 05:00:00 TS -15.50 149.97 30 997 bom 467 457 ______O__P__P_ -1 -15.50 149.90 20 30 997 2.50 -15.44 149.87 TC 34 997 -15.55 150.15 TC 34 997 45 45 4 314
1976 SP EA 06:00:00 TS -15.45 149.91 463 448 ______P__O__O_ -1 -15.45 149.84 20 30 996 -15.40 149.80 TC 35 997 -15.50 150.10 TC 35 997 5 308
1976 SP EA 09:00:00 TS -15.31 149.72 448 438 ______P__P__P_ -1 -15.29 149.64 20 33 996 -15.30 149.61 TC 35 996 -15.34 149.91 TC 35 996 5 304
1976 SP EA 11:00:00 TS -15.23 149.58 35 996 bom 443 434 ______O__P__P_ -1 -15.20 149.50 30 35 996 3.00 -15.24 149.47 TC 35 996 -15.24 149.77 TC 35 996 49 49 6 300
1976 SP EA 12:00:00 TS -15.17 149.47 434 408 ______P_OO__O_ -1 -15.17 149.44 30 35 995 -15.00 149.00 40 990 -15.20 149.40 TC 35 996 -15.20 149.70 TC 35 996 6 293
1976 SP EA 15:00:00 TS -15.08 149.21 408 388 ______P_PP__P_ -1 -15.08 149.25 30 35 994 -15.04 148.54 40 990 -15.06 149.21 TC 37 995 -15.11 149.52 TC 37 995 6 290
1976 SP EA 17:00:00 TS -15.01 149.00 35 994 bom 388 377 ______O_PP__P_ -1 -15.00 149.10 30 35 994 3.00 -15.06 148.27 40 990 -14.96 149.07 TC 39 994 -15.04 149.38 TC 39 994 49 49 7 287
1976 SP EA 18:00:00 TS -14.98 148.87 377 346 ______P_PO__O_ -1 -14.95 149.00 30 35 994 -15.06 148.16 40 990 -14.90 149.00 TC 40 994 -15.00 149.30 TC 40 994 7 293
1976 SP EA 21:00:00 TS -14.84 148.59 348 337 ______P_PP__P_ -1 -14.76 148.68 30 35 994 -15.05 147.95 40 990 -14.72 148.73 TC 40 994 -14.83 148.98 TC 40 994 6 302
1976 SP EA 23:00:00 TS -14.72 148.45 35 994 bom 329 329 ______O_PP__P_ -1 -14.60 148.50 30 35 994 3.00 -15.02 147.95 40 990 -14.58 148.56 TC 40 994 -14.68 148.78 TC 40 994 49 49 5 318
1976 SP EA 1976-02-16 00:00:00 TS -14.65 148.41 329 329 ______P_OO__O_ -1 -14.50 148.43 30 35 993 -15.00 148.00 40 990 -14.50 148.50 TC 40 994 -14.60 148.70 TC 40 994 5 350
1976 SP EA 03:00:00 TS -14.39 148.39 337 337 ______P_PP__P_ -1 -14.19 148.30 30 38 992 -14.89 148.35 43 987 -14.18 148.38 TC 42 993 -14.29 148.52 TC 42 993 5 8
1976 SP EA 05:00:00 TS -14.22 148.47 40 992 bom 355 355 ______O_PP__P_ -1 -14.00 148.30 30 40 992 3.00 -14.80 148.69 46 985 -13.98 148.38 TC 44 992 -14.09 148.49 TC 44 992 55 55 6 29
1976 SP EA 06:00:00 TS -14.14 148.53 359 359 ______P_PO__O_ -1 -13.92 148.33 30 40 991 -14.75 148.89 47 985 -13.90 148.40 TC 45 992 -14.00 148.50 TC 45 992 6 54
1976 SP EA 09:00:00 TS -13.98 148.80 393 381 ______P_PP__P_ -1 -13.74 148.52 30 40 990 -14.61 149.49 51 982 -13.78 148.55 TC 45 991 -13.78 148.64 TC 45 991 6 66
1976 SP EA 11:00:00 TS -13.93 149.02 40 990 bom 381 374 ______O_PP__P_ -1 -13.70 148.70 30 40 990 3.00 -14.53 149.85 53 980 -13.78 148.71 TC 45 990 -13.71 148.81 TC 45 990 55 55 8 81
1976 SP EA 12:00:00 TS -13.91 149.21 374 368 O_____P_OO__O_ jtwc_sh SH151976 -13.80 149.90 -1 -13.72 148.79 30 40 989 -14.50 150.00 55 980 -13.80 148.80 TC 45 990 -13.70 148.90 TC 45 990 7 104
1976 SP EA 15:00:00 TS -14.04 149.48 377 377 P_____P_PP__P_ SH151976 -14.17 149.94 -1 -13.87 149.08 30 43 988 -14.44 150.15 55 980 -13.92 149.07 TC 47 989 -13.80 149.18 TC 47 989 6 121
1976 SP EA 17:00:00 TS -14.18 149.67 45 988 bom 395 394 P_____O_PP__P_ SH151976 -14.40 150.02 -1 -14.00 149.30 30 45 988 3.00 -14.43 150.20 55 980 -14.04 149.28 TC 49 988 -13.93 149.39 TC 49 989 64 64 7 127
1976 SP EA 18:00:00 TS -14.26 149.79 405 404 O_____P_PO__O_ jtwc_sh SH151976 -14.50 150.10 -1 -14.04 149.40 30 45 987 -14.42 150.21 55 980 -14.10 149.40 TC 50 988 -14.00 149.50 TC 50 989 7 120
1976 SP EA 21:00:00 TS -14.41 150.09 414 414 P_____P_PP__P_ SH151976 -14.74 150.49 -1 -14.17 149.73 30 48 986 -14.44 150.29 55 980 -14.24 149.74 TC 50 987 -14.13 149.80 TC 50 989 7 114
1976 SP EA 23:00:00 TS -14.51 150.37 50 986 bom 425 425 P_____O_PP__P_ SH151976 -14.86 150.87 -1 -14.30 150.00 30 50 986 3.50 -14.48 150.41 55 980 -14.34 150.03 TC 50 986 -14.24 150.05 TC 50 989 69 69 10 110
1976 SP EA 1976-02-17 00:00:00 TS -14.58 150.56 437 437 O_____P_OOO_O_ jtwc_sh SH151976 -14.90 151.10 -1 -14.40 150.14 30 50 985 -14.50 150.50 55 980 -14.40 150.20 TC 50 986 -14.90 151.10 4 -14.30 150.20 TC 50 989 13 107
1976 SP EA 02:00:00 TS -14.69 151.00 50 984 bom 452 452 P_____O_PPP_P_ SH151976 -14.95 151.61 -1 -14.60 150.50 30 50 984 3.50 -14.54 150.76 55 980 -14.53 150.60 TC 51 984 -14.93 151.70 4 -14.47 150.56 TC 51 987 69 69 14 104
1976 SP EA 03:00:00 TS -14.75 151.27 458 458 P_____P_PPP_P_ SH151976 -14.97 151.89 -1 -14.68 150.74 30 51 983 -14.57 150.92 55 980 -14.60 150.83 TC 52 984 -14.94 152.00 4 -14.56 150.77 TC 52 987 16 100
1976 SP EA 05:00:00 TS -14.83 151.82 55 982 bom 483 483 P_____O_PPP_P_ SH151976 -14.99 152.49 -1 -14.80 151.30 30 55 982 4.00 -14.63 151.28 55 980 -14.74 151.33 TC 54 982 -14.97 152.59 4 -14.73 151.24 TC 54 986 75 75 16 99
1976 SP EA 06:00:00 TS -14.87 152.09 504 504 O_____P_POP_O_ jtwc_sh SH151976 -15.00 152.80 -1 -14.84 151.57 30 55 981 -14.67 151.49 55 980 -14.80 151.60 TC 55 982 -14.99 152.88 4 -14.80 151.50 TC 55 986 16 97
1976 SP EA 09:00:00 TS -14.97 152.93 547 547 P_____P_PPP_P_ SH151976 -15.08 153.72 -1 -14.93 152.40 30 58 979 -14.82 152.19 55 980 -14.94 152.41 TC 57 980 -15.07 153.75 4 -14.90 152.30 TC 55 985 17 98
1976 SP EA 11:00:00 TS -15.06 153.51 60 978 bom 588 588 P_____O_PPP_P_ SH151976 -15.15 154.31 -1 -15.00 153.00 30 60 978 4.00 -14.93 152.72 55 980 -15.04 152.99 TC 59 978 -15.15 154.32 4 -14.96 152.89 TC 55 985 84 84 17 99
1976 SP EA 12:00:00 TS -15.11 153.80 605 605 O_____P_OOO_O_ jtwc_sh SH151976 -15.20 154.60 -1 -15.06 153.32 30 60 977 -15.00 153.00 55 980 -15.10 153.30 TC 60 978 -15.20 154.60 4 -15.00 153.20 TC 55 985 18 102
1976 SP EA 15:00:00 TS -15.31 154.71 681 681 P_____P_PPP_P_ SH151976 -15.37 155.39 -1 -15.31 154.32 30 63 975 -15.20 153.98 57 977 -15.33 154.29 TC 62 976 -15.39 155.41 4 -15.22 154.18 TC 60 981 18 104
1976 SP EA 17:00:00 TS -15.48 155.31 65 974 bom 741 741 P_____O_PPP_P_ SH151976 -15.52 155.87 -1 -15.50 155.00 40 65 974 4.50 -15.35 154.70 59 975 -15.51 154.96 TC 64 974 -15.54 155.92 4 -15.40 154.86 TC 63 979 89 89 18 106
1976 SP EA 18:00:00 TS -15.56 155.61 771 766 O_____P_POP_O_ jtwc_sh SH151976 -15.60 156.10 -1 -15.59 155.32 40 65 973 -15.43 155.06 60 975 -15.60 155.30 TC 65 974 -15.62 156.16 4 -15.50 155.20 TC 65 978 18 109
1976 SP EA 21:00:00 TS -15.85 156.46 761 757 P_____P_PPP_P_ SH151976 -15.88 156.80 -1 -15.89 156.27 40 68 972 -15.70 156.10 62 972 -15.89 156.27 TC 67 973 -15.90 156.84 4 -15.79 156.16 TC 67 976 17 110
1976 SP EA 23:00:00 TS -16.05 156.99 70 972 bom 767 759 P_____O_PPP_P_ SH151976 -16.09 157.22 -1 -16.10 156.90 40 70 972 4.50 -15.89 156.73 64 970 -16.10 156.89 TC 69 972 -16.10 157.23 4 -16.00 156.79 TC 69 975 99 99 16 112
1976 SP EA 1976-02-18 00:00:00 TS -16.16 157.25 769 755 O_____P_OOO_O_ jtwc_sh SH151976 -16.20 157.40 -1 -16.20 157.24 40 70 972 -16.00 157.00 65 970 -16.20 157.20 TC 70 972 -16.20 157.40 4 -16.10 157.10 TC 70 975 15 113
1976 SP EA 03:00:00 TS -16.45 157.96 758 729 P_____P_PPP_P_ SH151976 -16.49 157.86 -1 -16.49 158.22 40 70 972 -16.33 157.62 66 968 -16.49 158.17 TC 70 972 -16.50 157.86 4 -16.39 158.10 TC 70 974 14 115
1976 SP EA 05:00:00 TS -16.66 158.36 70 972 bom 714 699 P_____O_PPP_P_ SH151976 -16.69 158.10 -1 -16.70 158.80 40 70 972 4.50 4 -16.57 157.93 67 967 -16.69 158.75 TC 70 972 -16.71 158.10 4 -16.59 158.72 TC 70 973 99 99 13 120
1976 SP EA 06:00:00 TS -16.77 158.54 699 636 O_____P_POP_O_ jtwc_sh SH151976 -16.80 158.20 -1 -16.80 159.07 40 70 972 -16.69 158.07 67 967 -16.80 159.00 TC 70 972 -16.82 158.21 4 -16.70 159.00 TC 70 973 12 127
1976 SP EA 09:00:00 TS -17.12 159.00 636 600 P_____P_PPP_P_ SH151976 -17.14 158.48 -1 -17.14 159.73 40 70 972 -17.09 158.41 68 966 -17.18 159.64 TC 70 972 -17.15 158.48 4 -17.02 159.74 TC 70 974 11 133
1976 SP EA 11:00:00 TS -17.38 159.21 70 972 bom 600 585 P_____O_PPP_P_ SH151976 -17.38 158.63 -1 -17.40 160.00 40 70 972 4.50 -17.36 158.61 69 965 -17.46 159.92 TC 70 972 -17.38 158.63 4 -17.26 160.09 TC 70 974 99 99 10 143
1976 SP EA 12:00:00 TS -17.51 159.30 585 543 O_____P_OOO_O_ jtwc_sh SH151976 -17.50 158.70 -1 -17.55 160.08 40 69 972 -17.50 158.70 70 965 -17.60 160.00 TC 70 972 -17.50 158.70 4 -17.40 160.20 TC 70 975 9 156
1976 SP EA 15:00:00 TS -17.92 159.47 543 527 P_____P_PPP_P_ SH151976 -17.85 158.92 -1 -18.07 160.09 40 66 974 -17.91 159.07 70 965 -18.05 160.04 TC 67 974 -17.81 158.95 4 -17.89 160.31 TC 67 976 9 163
1976 SP EA 17:00:00 TS -18.20 159.52 65 976 bom 527 522 P_____O_PPP_P_ SH151976 -18.08 159.04 -1 -18.40 160.00 40 65 976 4.50 -18.20 159.30 70 965 -18.35 159.95 TC 65 975 -18.02 159.09 4 -18.24 160.25 TC 65 976 89 89 8 171
1976 SP EA 18:00:00 TS -18.33 159.55 522 494 O_____P_POP_O_ jtwc_sh SH151976 -18.20 159.10 -1 -18.55 159.96 40 63 976 -18.34 159.40 70 965 -18.50 159.90 TC 65 976 -18.13 159.15 4 -18.40 160.20 TC 65 977 8 172
1976 SP EA 21:00:00 TS -18.72 159.60 494 483 P_____P_PPP_P_ SH151976 -18.52 159.27 -1 -18.97 159.81 40 58 977 -18.77 159.65 70 965 -18.93 159.81 TC 62 977 -18.49 159.31 4 -18.84 160.07 TC 65 978 8 175
1976 SP EA 23:00:00 TS -18.97 159.61 55 979 bom 483 479 P_____O_PPP_P_ SH151976 -18.76 159.36 -1 -19.20 159.70 30 55 979 4.00 -19.06 159.76 70 965 -19.19 159.74 TC 60 978 -18.76 159.38 4 -19.09 159.95 TC 65 978 75 75 8 0
1976 SP EA 1976-02-19 00:00:00 TS -19.10 159.61 479 468 O_____P_OOO_O_ jtwc_sh SH151976 -18.90 159.40 -1 -19.30 159.66 30 55 979 -19.20 159.80 70 965 -19.30 159.70 TC 60 979 -18.90 159.40 4 -19.20 159.90 TC 65 979 8 0
1976 SP EA 03:00:00 TS -19.49 159.61 468 464 P_____P_PPP_P_ SH151976 -19.42 159.49 -1 -19.54 159.55 30 55 980 -19.58 159.87 68 966 -19.56 159.61 TC 60 980 -19.42 159.48 4 -19.46 159.78 TC 62 979 8 182
1976 SP EA 05:00:00 TS -19.75 159.59 55 981 bom 462 461 P_____O_PPP_P_ SH151976 -19.81 159.51 -1 -19.70 159.50 30 55 981 4.00 -19.83 159.87 67 967 -19.71 159.54 TC 60 980 -19.79 159.50 4 -19.62 159.72 TC 60 979 75 75 8 186
1976 SP EA 06:00:00 TS -19.89 159.58 461 459 O_____P_POP_O_ jtwc_sh SH151976 -20.00 159.50 -1 -19.78 159.51 30 55 981 -19.96 159.84 67 967 -19.80 159.50 TC 60 981 -19.98 159.50 4 -19.70 159.70 TC 60 980 8 187
1976 SP EA 09:00:00 TS -20.31 159.52 469 469 P_____P_PPP_P_ SH151976 -20.57 159.45 -1 -20.05 159.53 30 55 982 -20.36 159.72 66 968 -20.08 159.39 TC 57 982 -20.56 159.44 4 -19.94 159.69 TC 60 980 9 191
1976 SP EA 11:00:00 TS -20.61 159.43 55 983 bom 480 480 P_____O_PPP_P_ SH151976 -20.93 159.36 -1 -20.30 159.40 30 55 983 4.00 -20.65 159.58 65 969 -20.34 159.28 TC 55 982 -20.93 159.36 4 -20.16 159.65 TC 60 980 75 75 10 199
1976 SP EA 12:00:00 TS -20.76 159.35 492 492 O_____P_OOO_O_ jtwc_sh SH151976 -21.10 159.30 -1 -20.44 159.24 30 55 983 -20.80 159.50 65 970 -20.50 159.20 TC 55 983 -21.10 159.30 4 -20.30 159.60 TC 60 980 11 205
1976 SP EA 14:00:00 TS -21.11 159.17 55 984 bom 507 507 P_____O_PPP_P_ SH151976 -21.39 159.17 -1 -20.80 158.90 30 55 984 4.00 -21.16 159.33 63 971 -20.92 159.02 TC 55 983 -21.41 159.17 4 -20.67 159.44 TC 60 980 75 75 12 205
1976 SP EA 15:00:00 TS -21.29 159.08 521 521 P_____P_PPP_P_ SH151976 -21.52 159.09 -1 -21.04 158.82 30 55 984 -21.36 159.23 62 972 -21.16 158.91 TC 55 984 -21.56 159.09 4 -20.88 159.32 TC 60 981 13 206
1976 SP EA 17:00:00 TS -21.68 158.87 55 985 bom 551 551 P_____O_PPP_P_ SH151976 -21.77 158.91 -1 -21.60 158.70 30 55 985 3.50 -21.75 159.01 60 974 -21.66 158.65 TC 55 984 -21.84 158.89 4 -21.35 159.06 TC 60 981 75 75 13 208
1976 SP EA 18:00:00 TS -21.87 158.75 578 575 O_____P_POP_O_ jtwc_sh SH151976 -21.90 158.80 -1 -21.89 158.57 30 55 985 -21.94 158.88 60 975 -21.90 158.50 TC 55 985 -21.97 158.79 4 -21.60 158.90 TC 60 982 14 214
1976 SP EA 21:00:00 TS -22.46 158.30 570 527 P_____P_PPP_P_ SH151976 -22.31 158.43 -1 -22.71 158.01 30 55 986 -22.51 158.46 57 977 -22.60 157.96 TC 52 986 -22.35 158.42 4 -22.44 158.37 TC 57 983 14 218
1976 SP EA 23:00:00 TS -22.80 157.96 55 987 bom 527 504 P_____O_PPP_P_ SH151976 -22.57 158.15 -1 -23.10 157.60 30 55 987 3.50 -22.85 158.16 55 979 -22.97 157.58 TC 50 986 -22.59 158.14 4 -22.92 157.98 TC 55 984 75 75 13 224
1976 SP EA 1976-02-20 00:00:00 TS -22.93 157.81 504 452 O_____P_OOO_O_ jtwc_sh SH151976 -22.70 158.00 -1 -23.20 157.44 30 54 987 -23.00 158.00 55 980 -23.10 157.40 TC 50 987 -22.70 158.00 4 -23.10 157.80 TC 55 985 10 235
1976 SP EA 03:00:00 TS -23.19 157.36 452 420 P_____P_PPP_P_ SH151976 -23.07 157.56 -1 -23.24 156.98 30 51 988 -23.38 157.56 51 982 -23.23 156.98 TC 50 988 -23.06 157.56 4 -23.25 157.33 TC 55 985 9 241
1976 SP EA 05:00:00 TS -23.30 157.07 50 989 bom 420 401 P_____O_PPP_P_ SH151976 -23.30 157.26 -1 -23.20 156.70 30 50 989 3.00 -23.59 157.24 48 984 -23.21 156.73 TC 50 988 -23.29 157.25 4 -23.22 157.04 TC 55 985 69 69 9 248
1976 SP EA 06:00:00 TS -23.35 156.92 397 355 O_____P_POP_O_ jtwc_sh SH151976 -23.40 157.10 -1 -23.21 156.56 30 50 989 -23.68 157.08 47 985 -23.20 156.60 TC 50 989 -23.39 157.09 4 -23.20 156.90 TC 55 985 9 249
1976 SP EA 09:00:00 TS -23.52 156.45 355 323 P_____P_PPP_P_ SH151976 -23.68 156.60 -1 -23.26 156.17 30 50 990 -23.88 156.56 43 987 -23.24 156.15 TC 47 990 -23.67 156.59 4 -23.24 156.50 TC 52 987 9 250
1976 SP EA 11:00:00 TS -23.62 156.14 50 991 bom 313 299 P_____O_PPP_P_ SH151976 -23.83 156.26 -1 -23.30 155.90 30 50 991 2.50 -23.97 156.19 41 989 -23.28 155.85 TC 45 990 -23.83 156.26 4 -23.28 156.24 TC 50 988 69 69 9 252
1976 SP EA 12:00:00 TS -23.66 155.98 299 249 O_____P_OOO_O_ jtwc_sh SH151976 -23.90 156.10 -1 -23.33 155.75 30 50 991 -24.00 156.00 40 990 -23.30 155.70 TC 45 991 -23.90 156.10 4 -23.30 156.10 TC 50 989 9 255
1976 SP EA 15:00:00 TS -23.78 155.49 249 222 P_____P_PPP_P_ SH151976 -24.08 155.64 -1 -23.43 155.29 30 50 991 -24.02 155.33 43 987 -23.39 155.29 TC 45 991 -24.07 155.61 4 -23.39 155.64 TC 47 990 9 256
1976 SP EA 17:00:00 TS -23.84 155.17 50 992 bom 222 199 P_____O_PPP_P_ SH151976 -24.17 155.35 -1 -23.50 155.00 30 50 992 2.50 -23.99 154.86 46 985 -23.46 155.02 TC 45 991 -24.16 155.29 4 -23.46 155.34 TC 45 991 69 69 9 258
1976 SP EA 18:00:00 TS -23.87 155.02 199 165 O_____P_POP_O_ jtwc_sh SH151976 -24.20 155.20 -1 -23.54 154.87 30 50 992 -23.96 154.63 47 985 -23.50 154.90 TC 45 992 -24.19 155.14 4 -23.50 155.20 TC 45 992 8 261
1976 SP EA 21:00:00 TS -23.93 154.57 165 135 P_____P_PPP_P_ SH151976 -24.27 154.73 -1 -23.64 154.51 30 50 992 -23.87 154.00 51 982 -23.61 154.53 TC 45 992 -24.26 154.70 4 -23.61 154.82 TC 45 992 8 262
1976 SP EA 23:00:00 TS -23.96 154.31 50 992 bom 135 127 P_____O_PPP_P_ SH151976 -24.29 154.43 -1 -23.70 154.30 30 50 992 2.00 -23.82 153.65 53 980 -23.67 154.30 TC 45 992 -24.29 154.43 4 -23.67 154.60 TC 45 992 69 69 7 263
1976 SP EA 1976-02-21 00:00:00 TS -23.97 154.19 127 108 O_____P_OOO_O_ jtwc_sh SH151976 -24.30 154.30 -1 -23.72 154.21 30 50 992 -23.80 153.50 55 980 -23.70 154.20 TC 45 992 -24.30 154.30 4 -23.70 154.50 TC 45 992 6 264
1976 SP EA 03:00:00 TS -24.00 153.90 108 102 P_____P_PPP_P_ SH151976 -24.31 153.97 -1 -23.77 153.96 30 50 992 -23.81 153.25 51 982 -23.75 153.93 TC 42 992 -24.33 153.99 4 -23.76 154.23 TC 42 992 5 264
1976 SP EA 05:00:00 TS -24.02 153.74 50 993 bom 98 98 P_____O_PPP_P_ SH151976 -24.30 153.79 -1 -23.80 153.80 30 50 993 2.00 -23.83 153.17 48 984 -23.78 153.78 TC 40 992 -24.34 153.81 4 -23.79 154.08 TC 40 992 69 69 4 264
1976 SP EA 06:00:00 TS -24.03 153.67 98 80 O_____P_POP_O_ jtwc_sh SH151976 -24.30 153.70 -1 -23.81 153.71 30 50 993 -23.85 153.14 47 985 -23.80 153.70 TC 40 993 -24.34 153.72 4 -23.80 154.00 TC 40 993 4 262
1976 SP EA 09:00:00 TS -24.06 153.44 78 78 P_____P_PPP_P_ SH151976 -24.30 153.46 -1 -23.85 153.46 30 50 993 -23.91 153.08 43 987 -23.88 153.44 TC 40 993 -24.32 153.47 4 -23.83 153.74 TC 40 993 4 260
1976 SP EA 11:00:00 TS -24.09 153.30 50 994 bom 78 78 P_____O_PPP_P_ SH151976 -24.30 153.29 -1 -23.90 153.30 30 50 994 2.00 -23.97 153.03 41 989 -23.96 153.28 TC 40 993 -24.31 153.29 4 -23.87 153.58 TC 40 993 69 69 4 257
1976 SP EA 12:00:00 TS -24.10 153.22 78 67 O_____P_OOO_O_ jtwc_sh SH151976 -24.30 153.20 -1 -23.93 153.23 30 50 994 -24.00 153.00 40 990 -24.00 153.20 TC 40 994 -24.30 153.20 4 -23.90 153.50 TC 40 994 5 253
1976 SP EA 15:00:00 TS -24.18 152.98 67 67 P_____P_PPP_P_ SH151976 -24.31 152.87 -1 -24.06 153.05 30 50 994 -24.11 152.84 40 990 -24.13 153.02 TC 40 994 -24.31 152.89 4 -24.01 153.31 TC 40 994 5 251
1976 SP EA 17:00:00 TS -24.24 152.80 50 994 bom 73 63 P_____O_PPP_P_ SH151976 -24.31 152.62 -1 -24.20 152.90 30 50 994 2.00 -24.19 152.69 40 990 -24.24 152.89 TC 40 994 -24.31 152.67 4 -24.13 153.18 TC 40 994 69 69 6 249
1976 SP EA 18:00:00 TS -24.28 152.70 63 45 O_____P_POP_O_ jtwc_sh SH151976 -24.30 152.50 -1 -24.29 152.81 30 50 994 -24.23 152.60 40 990 -24.30 152.80 TC 40 994 -24.30 152.55 4 -24.20 153.10 TC 40 994 6 247
1976 SP EA 20:00:00 TS -24.36 152.48 50 994 bom 45 37 P_____O_PPP_P_ SH151976 -24.28 152.27 -1 -24.50 152.60 30 50 994 2.00 -24.32 152.41 40 990 -24.45 152.58 TC 38 994 -24.29 152.32 4 -24.40 152.90 TC 38 994 69 69 7 248
1976 SP EA 21:00:00 TS -24.40 152.36 37 10 P_____P_PPP_P_ SH151976 -24.26 152.16 -1 -24.61 152.48 30 48 994 -24.36 152.31 40 990 -24.53 152.44 TC 37 995 -24.27 152.19 4 -24.51 152.79 TC 37 995 7 253
1976 SP EA 23:00:00 TS -24.46 152.11 45 996 bom 10 0 P_____O_PPP_P_ SH151976 -24.22 151.92 -1 -24.80 152.20 30 45 996 -24.45 152.11 40 990 -24.71 152.15 TC 35 995 -24.23 151.93 4 -24.72 152.54 TC 35 995 64 64 7 262
1976 SP EA 1976-02-22 00:00:00 TS -24.45 151.97 0 0 O_____P_OOO_O_ jtwc_sh SH151976 -24.20 151.80 -1 -24.86 152.05 30 41 997 -24.50 152.00 40 990 -24.80 152.00 TC 35 996 -24.20 151.80 4 -24.80 152.40 TC 35 996 8 282
1976 SP EA 03:00:00 TS -24.35 151.53 0 0 P_____P___P_P_ SH151976 -24.13 151.42 -1 -24.92 151.60 30 31 1001 TC -24.08 151.38 4 -24.91 151.96 TC 30 1000 9 290
1976 SP EA 05:00:00 TS -24.20 151.21 25 1004 bom 0 0 P_____O___P_P_ SH151976 -24.05 151.15 -1 -24.90 151.30 20 25 1004 TC -23.97 151.08 4 -24.91 151.66 TC 26 1002 45 45 11 302
1976 SP EA 06:00:00 TS -24.06 151.03 0 0 O_________P_O_ jtwc_sh SH151976 -24.00 151.00 -1 20 -23.91 150.93 4 -24.90 151.50 TC 25 1004 12 305
1976 SP EA 09:00:00 TS -23.76 150.50 0 0 P_________P___ SH151976 -23.78 150.52 -1 20 -23.71 150.47 4 TC 11 301
1976 SP EA 12:00:00 TS -23.50 150.00 0 O_________O___ jtwc_sh SH151976 -23.50 150.00 -1 -23.50 150.00 6 11 299